Time;durP1;ratioP1;P1;durP2;ratioP2;P2;SDS_P1;SDS_P2;PMS_P1;PMS_P2;Temp;Humidity;BMP_temperature;BMP_pressure;BME280_temperature;BME280_humidity;BME280_pressure;Samples;Min_cycle;Max_cycle;Signal;HPM_P1;HPM_P2
2022/08/15 00:00:22;;;;;;;;;;;26.80;46.40;;;;;;5071708;28;19928;-70
2022/08/15 00:02:49;;;;;;;;;;;26.80;46.40;;;;;;5085458;28;19975;-71
2022/08/15 00:05:19;;;;;;;;;;;26.80;46.50;;;;;;5085279;28;19932;-70
2022/08/15 00:07:46;;;;;;;;;;;26.70;46.40;;;;;;5086673;28;19928;-70
2022/08/15 00:10:13;;;;;;;;;;;26.70;46.60;;;;;;5086338;28;20292;-69
2022/08/15 00:12:40;;;;;;;;;;;26.70;46.60;;;;;;5068463;28;19932;-70
2022/08/15 00:15:09;;;;;;;;;;;26.70;46.70;;;;;;5081768;28;19932;-69
2022/08/15 00:17:36;;;;;;;;;;;26.70;46.70;;;;;;5080276;28;19928;-69
2022/08/15 00:20:03;;;;;;;;;;;26.70;46.90;;;;;;5083841;28;19931;-71
2022/08/15 00:22:30;;;;;;;;;;;26.60;46.80;;;;;;5081059;28;19928;-69
2022/08/15 00:24:57;;;;;;;;;;;26.60;47.00;;;;;;5085196;28;19931;-70
2022/08/15 00:27:24;;;;;;;;;;;26.60;47.00;;;;;;5076282;28;19940;-69
2022/08/15 00:29:51;;;;;;;;;;;26.60;47.00;;;;;;5074755;28;19936;-70
2022/08/15 00:32:23;;;;;;;;;;;26.50;47.20;;;;;;5089688;28;19963;-70
2022/08/15 00:34:50;;;;;;;;;;;26.50;47.20;;;;;;5080901;28;20031;-69
2022/08/15 00:37:18;;;;;;;;;;;26.50;47.40;;;;;;5083758;28;19924;-70
2022/08/15 00:39:44;;;;;;;;;;;26.50;47.60;;;;;;5086779;28;19924;-69
2022/08/15 00:42:11;;;;;;;;;;;26.50;47.80;;;;;;5088359;28;19951;-69
2022/08/15 00:44:40;;;;;;;;;;;26.50;47.80;;;;;;5089856;28;20384;-70
2022/08/15 00:47:09;;;;;;;;;;;26.40;47.90;;;;;;5083023;28;19981;-69
2022/08/15 00:49:37;;;;;;;;;;;26.40;48.10;;;;;;5083226;28;19944;-69
2022/08/15 00:52:05;;;;;;;;;;;26.40;48.60;;;;;;5078476;28;19929;-68
2022/08/15 00:54:34;;;;;;;;;;;26.40;48.80;;;;;;5086783;28;19927;-71
2022/08/15 00:57:02;;;;;;;;;;;26.40;49.00;;;;;;5087692;28;19947;-68
2022/08/15 00:59:32;;;;;;;;;;;26.30;48.90;;;;;;5082950;28;20007;-69
2022/08/15 01:01:59;;;;;;;;;;;26.30;48.90;;;;;;5084729;28;20304;-71
2022/08/15 01:04:26;;;;;;;;;;;26.30;49.00;;;;;;5083274;28;20384;-69
2022/08/15 01:06:57;;;;;;;;;;;26.30;49.10;;;;;;5086574;28;19927;-69
2022/08/15 01:09:24;;;;;;;;;;;26.30;49.10;;;;;;5087969;28;19920;-70
2022/08/15 01:11:53;;;;;;;;;;;26.20;49.20;;;;;;5078144;28;20010;-69
2022/08/15 01:14:20;;;;;;;;;;;26.20;49.30;;;;;;5081481;28;19924;-69
2022/08/15 01:16:47;;;;;;;;;;;26.20;49.40;;;;;;5089605;28;20292;-71
2022/08/15 01:19:16;;;;;;;;;;;26.10;49.50;;;;;;5085201;28;19990;-69
2022/08/15 01:21:54;;;;;;;;;;;26.10;49.70;;;;;;5083163;28;19924;-69
2022/08/15 01:24:37;;;;;;;;;;;26.10;49.80;;;;;;5080404;28;19931;-70
2022/08/15 01:27:04;;;;;;;;;;;26.10;50.00;;;;;;5080954;28;20567;-72
2022/08/15 01:29:32;;;;;;;;;;;26.10;50.10;;;;;;5079575;28;19940;-69
2022/08/15 01:31:58;;;;;;;;;;;26.00;50.00;;;;;;5086040;28;19928;-70
2022/08/15 01:34:25;;;;;;;;;;;26.00;49.90;;;;;;5089111;28;19924;-69
2022/08/15 01:36:51;;;;;;;;;;;26.00;50.00;;;;;;5087924;28;19936;-69
2022/08/15 01:39:22;;;;;;;;;;;26.00;50.00;;;;;;5085093;28;19994;-69
2022/08/15 01:41:53;;;;;;;;;;;25.90;50.00;;;;;;5088571;28;19928;-70
2022/08/15 01:44:21;;;;;;;;;;;25.90;50.00;;;;;;5082888;28;19924;-69
2022/08/15 01:46:50;;;;;;;;;;;25.90;50.00;;;;;;5076871;28;19925;-70
2022/08/15 01:49:21;;;;;;;;;;;25.90;50.10;;;;;;5084535;28;19928;-70
2022/08/15 01:51:49;;;;;;;;;;;25.80;50.00;;;;;;5088700;28;20011;-70
2022/08/15 01:54:16;;;;;;;;;;;25.80;50.00;;;;;;5085390;28;19953;-72
2022/08/15 01:56:44;;;;;;;;;;;25.80;50.00;;;;;;5082171;28;19928;-70
2022/08/15 01:59:14;;;;;;;;;;;25.80;50.10;;;;;;5084422;28;19924;-71
2022/08/15 02:01:44;;;;;;;;;;;25.70;50.00;;;;;;5079036;28;19931;-69
2022/08/15 02:04:12;;;;;;;;;;;25.70;50.10;;;;;;5082437;28;19924;-69
2022/08/15 02:06:39;;;;;;;;;;;25.70;50.30;;;;;;5085600;28;19932;-70
2022/08/15 02:09:06;;;;;;;;;;;25.70;50.30;;;;;;5088019;28;19928;-70
2022/08/15 02:11:33;;;;;;;;;;;25.60;50.40;;;;;;5079993;28;19929;-72
2022/08/15 02:13:59;;;;;;;;;;;25.60;50.50;;;;;;5086156;28;19932;-70
2022/08/15 02:16:30;;;;;;;;;;;25.60;50.60;;;;;;5087857;28;19928;-69
2022/08/15 02:18:56;;;;;;;;;;;25.60;50.70;;;;;;5079658;28;19955;-69
2022/08/15 02:21:23;;;;;;;;;;;25.60;51.00;;;;;;5084661;28;19943;-69
2022/08/15 02:23:50;;;;;;;;;;;25.50;51.00;;;;;;5088143;28;20326;-70
2022/08/15 02:26:17;;;;;;;;;;;25.50;51.20;;;;;;5087957;28;20399;-70
2022/08/15 02:28:44;;;;;;;;;;;25.50;51.30;;;;;;5081131;28;19947;-70
2022/08/15 02:31:13;;;;;;;;;;;25.50;51.50;;;;;;5081256;28;19924;-70
2022/08/15 02:33:42;;;;;;;;;;;25.50;51.70;;;;;;5088609;28;19924;-72
2022/08/15 02:36:08;;;;;;;;;;;25.50;51.90;;;;;;5086820;28;19936;-69
2022/08/15 02:38:35;;;;;;;;;;;25.40;52.00;;;;;;5081131;28;19932;-69
2022/08/15 02:41:02;;;;;;;;;;;25.40;52.20;;;;;;5081589;28;19931;-70
2022/08/15 02:43:28;;;;;;;;;;;25.30;52.30;;;;;;5079611;28;19935;-69
2022/08/15 02:45:59;;;;;;;;;;;25.30;52.40;;;;;;5084115;28;19972;-69
2022/08/15 02:48:26;;;;;;;;;;;25.30;52.60;;;;;;5080150;28;19935;-69
2022/08/15 02:50:53;;;;;;;;;;;25.30;52.60;;;;;;5086803;28;19928;-70
2022/08/15 02:53:20;;;;;;;;;;;25.30;52.80;;;;;;5079202;28;19923;-71
2022/08/15 02:55:48;;;;;;;;;;;25.30;53.00;;;;;;5087621;28;19974;-70
2022/08/15 02:58:15;;;;;;;;;;;25.30;53.00;;;;;;5084048;28;20403;-69
2022/08/15 03:00:42;;;;;;;;;;;25.20;53.10;;;;;;5080402;28;20300;-69
2022/08/15 03:03:10;;;;;;;;;;;25.20;53.10;;;;;;5085536;28;20477;-69
2022/08/15 03:05:39;;;;;;;;;;;25.20;53.20;;;;;;5081021;28;19928;-70
2022/08/15 03:08:07;;;;;;;;;;;25.10;53.30;;;;;;5087706;28;19935;-69
2022/08/15 03:10:34;;;;;;;;;;;25.10;53.50;;;;;;5083975;28;19928;-69
2022/08/15 03:13:04;;;;;;;;;;;25.10;53.60;;;;;;5070686;28;19924;-70
2022/08/15 03:15:37;;;;;;;;;;;25.10;53.80;;;;;;5083394;28;19939;-70
2022/08/15 03:18:04;;;;;;;;;;;25.10;54.00;;;;;;5076473;28;19925;-69
2022/08/15 03:20:31;;;;;;;;;;;25.00;54.00;;;;;;5080163;28;19936;-70
2022/08/15 03:22:58;;;;;;;;;;;25.00;54.10;;;;;;5087085;28;20023;-69
2022/08/15 03:25:26;;;;;;;;;;;24.90;54.30;;;;;;5081829;28;19928;-68
2022/08/15 03:27:53;;;;;;;;;;;24.90;54.50;;;;;;5082188;28;20379;-70
2022/08/15 03:30:19;;;;;;;;;;;24.90;54.80;;;;;;5082727;28;19928;-70
2022/08/15 03:32:48;;;;;;;;;;;24.80;54.90;;;;;;5072732;28;19928;-71
2022/08/15 03:35:14;;;;;;;;;;;24.90;55.00;;;;;;5078726;28;19932;-69
2022/08/15 03:37:41;;;;;;;;;;;24.80;55.00;;;;;;5077978;28;20338;-69
2022/08/15 03:40:09;;;;;;;;;;;24.80;55.20;;;;;;5079586;28;19971;-69
2022/08/15 03:42:38;;;;;;;;;;;24.70;55.20;;;;;;5087262;28;20327;-70
2022/08/15 03:45:05;;;;;;;;;;;24.70;55.30;;;;;;5076254;28;19936;-69
2022/08/15 03:47:32;;;;;;;;;;;24.70;55.40;;;;;;5081417;28;19937;-73
2022/08/15 03:49:59;;;;;;;;;;;24.70;55.60;;;;;;5074986;28;19924;-70
2022/08/15 03:52:26;;;;;;;;;;;24.70;55.60;;;;;;5080104;28;19927;-70
2022/08/15 03:54:53;;;;;;;;;;;24.60;55.70;;;;;;5079654;28;19935;-69
2022/08/15 03:57:20;;;;;;;;;;;24.60;55.90;;;;;;5087658;28;20408;-69
2022/08/15 03:59:47;;;;;;;;;;;24.60;55.90;;;;;;5087412;28;20281;-69
2022/08/15 04:02:14;;;;;;;;;;;24.60;55.90;;;;;;5090766;28;20380;-70
2022/08/15 04:04:41;;;;;;;;;;;24.50;56.00;;;;;;5085278;28;20380;-69
2022/08/15 04:07:07;;;;;;;;;;;24.50;56.10;;;;;;5091076;28;19999;-69
2022/08/15 04:09:34;;;;;;;;;;;24.50;56.30;;;;;;5089819;28;19920;-70
2022/08/15 04:12:01;;;;;;;;;;;24.50;56.30;;;;;;5083785;28;19924;-69
2022/08/15 04:14:28;;;;;;;;;;;24.50;56.70;;;;;;5090913;28;20678;-69
2022/08/15 04:16:57;;;;;;;;;;;24.40;57.00;;;;;;5090338;28;19924;-70
2022/08/15 04:19:24;;;;;;;;;;;24.40;57.50;;;;;;5090053;28;19931;-69
2022/08/15 04:21:51;;;;;;;;;;;24.40;57.70;;;;;;5088967;28;20315;-69
2022/08/15 04:24:17;;;;;;;;;;;24.30;57.90;;;;;;5089633;28;19924;-70
2022/08/15 04:26:44;;;;;;;;;;;24.30;58.20;;;;;;5088388;28;19928;-69
2022/08/15 04:29:11;;;;;;;;;;;24.30;58.50;;;;;;5081834;28;19920;-69
2022/08/15 04:31:37;;;;;;;;;;;24.30;58.70;;;;;;5084056;28;19940;-68
2022/08/15 04:34:06;;;;;;;;;;;24.20;59.00;;;;;;5082805;28;19925;-69
2022/08/15 04:36:33;;;;;;;;;;;24.20;58.90;;;;;;5090371;28;19924;-71
2022/08/15 04:38:59;;;;;;;;;;;24.20;59.30;;;;;;5083917;28;19928;-72
2022/08/15 04:41:30;;;;;;;;;;;24.10;59.40;;;;;;5086940;28;20438;-69
2022/08/15 04:43:56;;;;;;;;;;;24.10;59.60;;;;;;5090378;28;19985;-68
2022/08/15 04:46:23;;;;;;;;;;;24.00;59.80;;;;;;5089680;28;19934;-68
2022/08/15 04:48:49;;;;;;;;;;;24.00;60.00;;;;;;5084150;28;20311;-69
2022/08/15 04:51:17;;;;;;;;;;;24.00;60.30;;;;;;5082198;28;19939;-71
2022/08/15 04:53:44;;;;;;;;;;;23.90;60.40;;;;;;5090490;28;19931;-70
2022/08/15 04:56:11;;;;;;;;;;;23.80;60.50;;;;;;5089583;28;19924;-70
2022/08/15 04:58:37;;;;;;;;;;;23.80;60.80;;;;;;5090216;28;19939;-69
2022/08/15 05:01:06;;;;;;;;;;;23.80;61.00;;;;;;5080285;28;20403;-69
2022/08/15 05:03:33;;;;;;;;;;;23.70;61.00;;;;;;5084689;28;19924;-72
2022/08/15 05:06:00;;;;;;;;;;;23.70;61.40;;;;;;5086678;28;19928;-72
2022/08/15 05:08:29;;;;;;;;;;;23.70;61.30;;;;;;5083616;28;19920;-69
2022/08/15 05:10:57;;;;;;;;;;;23.60;61.40;;;;;;5084274;28;19933;-69
2022/08/15 05:13:26;;;;;;;;;;;23.60;61.60;;;;;;5082209;28;19931;-70
2022/08/15 05:15:53;;;;;;;;;;;23.60;61.80;;;;;;5081516;28;19924;-69
2022/08/15 05:18:20;;;;;;;;;;;23.50;61.80;;;;;;5088732;28;19932;-69
2022/08/15 05:20:46;;;;;;;;;;;23.50;61.90;;;;;;5081270;28;19928;-70
2022/08/15 05:23:14;;;;;;;;;;;23.50;62.00;;;;;;5080913;28;19928;-69
2022/08/15 05:25:43;;;;;;;;;;;23.50;62.20;;;;;;5079144;28;19932;-68
2022/08/15 05:28:10;;;;;;;;;;;23.40;62.10;;;;;;5087437;28;19931;-69
2022/08/15 05:30:37;;;;;;;;;;;23.40;63.00;;;;;;5088470;28;20009;-68
2022/08/15 05:33:05;;;;;;;;;;;23.40;62.30;;;;;;5089447;28;19920;-68
2022/08/15 05:35:31;;;;;;;;;;;23.40;62.50;;;;;;5077936;28;19934;-69
2022/08/15 05:37:59;;;;;;;;;;;23.40;63.00;;;;;;5084136;28;20023;-69
2022/08/15 05:40:26;;;;;;;;;;;23.30;61.70;;;;;;5076353;28;19928;-67
2022/08/15 05:42:59;;;;;;;;;;;23.30;62.30;;;;;;5081085;28;19928;-69
2022/08/15 05:45:32;;;;;;;;;;;23.30;62.60;;;;;;5075624;28;20026;-70
2022/08/15 05:48:06;;;;;;;;;;;23.30;62.70;;;;;;5080442;28;19930;-69
2022/08/15 05:50:35;;;;;;;;;;;23.30;62.70;;;;;;5081797;28;19943;-70
2022/08/15 05:53:06;;;;;;;;;;;23.30;62.70;;;;;;5083158;28;19970;-69
2022/08/15 05:55:36;;;;;;;;;;;23.20;62.60;;;;;;5086704;28;19928;-71
2022/08/15 05:58:12;;;;;;;;;;;23.20;62.60;;;;;;5082095;28;19931;-69
2022/08/15 06:00:40;;;;;;;;;;;23.20;62.70;;;;;;5080894;28;19927;-70
2022/08/15 06:03:08;;;;;;;;;;;23.20;62.80;;;;;;5081184;28;19985;-69
2022/08/15 06:05:36;;;;;;;;;;;23.20;62.90;;;;;;5088891;28;20330;-69
2022/08/15 06:08:08;;;;;;;;;;;23.20;62.90;;;;;;5081490;28;19924;-71
2022/08/15 06:10:36;;;;;;;;;;;23.20;62.80;;;;;;5085617;28;19931;-69
2022/08/15 06:13:04;;;;;;;;;;;23.20;62.90;;;;;;5078755;28;19924;-70
2022/08/15 06:15:35;;;;;;;;;;;23.20;63.00;;;;;;5087864;28;21122;-69
2022/08/15 06:18:03;;;;;;;;;;;23.10;63.00;;;;;;5088226;28;19931;-70
2022/08/15 06:20:36;;;;;;;;;;;23.10;62.90;;;;;;5076158;28;19942;-69
2022/08/15 06:23:06;;;;;;;;;;;23.10;63.10;;;;;;5083171;28;19924;-70
2022/08/15 06:25:37;;;;;;;;;;;23.10;63.00;;;;;;5086165;28;19975;-70
2022/08/15 06:28:09;;;;;;;;;;;23.10;62.90;;;;;;5083678;28;19933;-69
2022/08/15 06:30:50;;;;;;;;;;;23.10;63.00;;;;;;5073967;28;19928;-70
2022/08/15 06:33:24;;;;;;;;;;;23.00;63.10;;;;;;5087952;28;19940;-71
2022/08/15 06:35:55;;;;;;;;;;;23.10;63.20;;;;;;5080070;28;19929;-70
2022/08/15 06:38:25;;;;;;;;;;;23.00;63.10;;;;;;5080967;28;19924;-70
2022/08/15 06:40:54;;;;;;;;;;;23.00;63.00;;;;;;5079058;28;19957;-70
2022/08/15 06:43:21;;;;;;;;;;;23.00;63.00;;;;;;5085456;28;20363;-69
2022/08/15 06:45:50;;;;;;;;;;;23.00;63.00;;;;;;5082595;28;20401;-69
2022/08/15 06:48:19;;;;;;;;;;;23.00;63.00;;;;;;5074062;28;19959;-69
2022/08/15 06:50:47;;;;;;;;;;;23.00;63.00;;;;;;5078973;28;19924;-70
2022/08/15 06:53:15;;;;;;;;;;;23.00;63.00;;;;;;5082783;28;20342;-68
2022/08/15 06:55:46;;;;;;;;;;;22.90;62.80;;;;;;5079098;28;19978;-67
2022/08/15 06:58:15;;;;;;;;;;;22.90;62.90;;;;;;5082313;28;19978;-70
2022/08/15 07:00:45;;;;;;;;;;;23.00;63.00;;;;;;5081928;28;19927;-67
2022/08/15 07:03:20;;;;;;;;;;;22.90;63.00;;;;;;5079843;28;20022;-68
2022/08/15 07:05:49;;;;;;;;;;;22.90;63.00;;;;;;5080053;28;20056;-71
2022/08/15 07:08:20;;;;;;;;;;;22.90;63.10;;;;;;5078927;28;19924;-69
2022/08/15 07:10:48;;;;;;;;;;;22.90;63.10;;;;;;5080877;28;19924;-70
2022/08/15 07:13:16;;;;;;;;;;;22.90;63.10;;;;;;5079994;28;19924;-69
2022/08/15 07:15:49;;;;;;;;;;;22.80;62.90;;;;;;5080985;28;19924;-66
2022/08/15 07:18:19;;;;;;;;;;;22.90;63.10;;;;;;5081579;28;19924;-72
2022/08/15 07:20:46;;;;;;;;;;;22.80;62.90;;;;;;5081659;28;19984;-72
2022/08/15 07:23:17;;;;;;;;;;;22.80;62.90;;;;;;5072171;28;19935;-71
2022/08/15 07:25:45;;;;;;;;;;;22.80;62.70;;;;;;5075595;28;20441;-69
2022/08/15 07:28:13;;;;;;;;;;;22.80;63.00;;;;;;5076531;28;19963;-69
2022/08/15 07:30:44;;;;;;;;;;;22.80;63.30;;;;;;5070879;28;20442;-68
2022/08/15 07:33:26;;;;;;;;;;;22.80;63.50;;;;;;5075913;28;19932;-68
2022/08/15 07:36:02;;;;;;;;;;;22.80;63.70;;;;;;5074094;28;19928;-69
2022/08/15 07:38:31;;;;;;;;;;;22.80;63.60;;;;;;5074856;28;19934;-67
2022/08/15 07:41:12;;;;;;;;;;;22.70;63.70;;;;;;5077994;28;19938;-67
2022/08/15 07:43:39;;;;;;;;;;;22.70;63.80;;;;;;5077458;28;20400;-68
2022/08/15 07:46:08;;;;;;;;;;;22.70;64.00;;;;;;5077094;28;19924;-68
2022/08/15 07:48:35;;;;;;;;;;;22.70;64.10;;;;;;5078221;28;19932;-68
2022/08/15 07:51:06;;;;;;;;;;;22.70;64.30;;;;;;5076401;28;19947;-67
2022/08/15 07:53:33;;;;;;;;;;;22.70;64.40;;;;;;5070892;28;20019;-67
2022/08/15 07:56:04;;;;;;;;;;;22.70;64.60;;;;;;5074383;28;19928;-67
2022/08/15 07:58:32;;;;;;;;;;;22.70;64.70;;;;;;5077804;28;19987;-67
2022/08/15 08:01:09;;;;;;;;;;;22.70;64.80;;;;;;5074648;28;19939;-67
2022/08/15 08:03:36;;;;;;;;;;;22.70;64.80;;;;;;5071986;28;20760;-67
2022/08/15 08:06:06;;;;;;;;;;;22.60;64.70;;;;;;5074733;28;19939;-67
2022/08/15 08:08:37;;;;;;;;;;;22.70;64.80;;;;;;5077167;28;20739;-67
2022/08/15 08:11:07;;;;;;;;;;;22.70;64.70;;;;;;5079663;28;20318;-67
2022/08/15 08:13:39;;;;;;;;;;;22.60;64.80;;;;;;5073943;28;19935;-67
2022/08/15 08:16:08;;;;;;;;;;;22.70;64.90;;;;;;5073897;28;19924;-66
2022/08/15 08:18:42;;;;;;;;;;;22.70;65.00;;;;;;5069715;28;19928;-67
2022/08/15 08:21:12;;;;;;;;;;;22.70;65.00;;;;;;5069405;28;19928;-67
2022/08/15 08:23:41;;;;;;;;;;;22.70;65.30;;;;;;5069862;28;19924;-68
2022/08/15 08:26:10;;;;;;;;;;;22.70;65.20;;;;;;5076980;28;19931;-67
2022/08/15 08:28:42;;;;;;;;;;;22.70;65.30;;;;;;5075820;28;19939;-68
2022/08/15 08:31:13;;;;;;;;;;;22.70;65.20;;;;;;5074882;28;20013;-67
2022/08/15 08:33:46;;;;;;;;;;;22.70;65.20;;;;;;5077389;28;20319;-68
2022/08/15 08:36:21;;;;;;;;;;;22.70;65.20;;;;;;5074347;28;19935;-68
2022/08/15 08:38:52;;;;;;;;;;;22.70;65.40;;;;;;5074182;28;19928;-68
2022/08/15 08:41:29;;;;;;;;;;;22.70;65.40;;;;;;5077667;28;19937;-68
2022/08/15 08:44:00;;;;;;;;;;;22.70;65.30;;;;;;5079508;28;20683;-68
2022/08/15 08:46:48;;;;;;;;;;;22.70;65.30;;;;;;5077330;28;19928;-67
2022/08/15 08:49:18;;;;;;;;;;;22.70;65.20;;;;;;5082723;28;19993;-67
2022/08/15 08:51:51;;;;;;;;;;;22.70;65.10;;;;;;5079804;28;19932;-67
2022/08/15 08:54:22;;;;;;;;;;;22.70;65.00;;;;;;5075311;28;19928;-68
2022/08/15 08:56:50;;;;;;;;;;;22.80;65.00;;;;;;5078258;28;20686;-68
2022/08/15 08:59:19;;;;;;;;;;;22.80;64.90;;;;;;5068035;28;19931;-69
2022/08/15 09:01:48;;;;;;;;;;;22.80;64.70;;;;;;5076612;28;19936;-69
2022/08/15 09:04:17;;;;;;;;;;;22.80;64.60;;;;;;5076149;28;19928;-68
2022/08/15 09:06:46;;;;;;;;;;;22.90;64.50;;;;;;5068825;28;19936;-68
2022/08/15 09:09:16;;;;;;;;;;;22.90;64.60;;;;;;5069915;28;19939;-67
2022/08/15 09:11:45;;;;;;;;;;;22.90;64.60;;;;;;5074459;28;19939;-68
2022/08/15 09:14:14;;;;;;;;;;;22.90;64.30;;;;;;5074851;28;19932;-67
2022/08/15 09:16:41;;;;;;;;;;;22.90;64.00;;;;;;5077544;28;20512;-68
2022/08/15 09:19:12;;;;;;;;;;;23.00;63.90;;;;;;5074862;28;19931;-68
2022/08/15 09:21:39;;;;;;;;;;;23.00;63.70;;;;;;5071710;28;20438;-68
2022/08/15 09:24:06;;;;;;;;;;;23.00;63.40;;;;;;5069965;28;19932;-68
2022/08/15 09:26:40;;;;;;;;;;;23.00;63.30;;;;;;5076620;28;19932;-68
2022/08/15 09:29:09;;;;;;;;;;;23.10;63.20;;;;;;5076976;28;19967;-68
2022/08/15 09:31:37;;;;;;;;;;;23.20;63.10;;;;;;5073317;28;20035;-68
2022/08/15 09:34:21;;;;;;;;;;;23.20;62.90;;;;;;5077657;28;19936;-68
2022/08/15 09:37:00;;;;;;;;;;;23.20;62.70;;;;;;5074543;28;20602;-68
2022/08/15 09:39:35;;;;;;;;;;;23.30;62.60;;;;;;5072594;28;19927;-68
2022/08/15 09:42:13;;;;;;;;;;;23.40;62.30;;;;;;5072363;28;19931;-68
2022/08/15 09:44:48;;;;;;;;;;;23.40;62.10;;;;;;5078048;28;19928;-68
2022/08/15 09:47:29;;;;;;;;;;;23.50;61.70;;;;;;5075999;28;20587;-68
2022/08/15 09:50:09;;;;;;;;;;;23.50;61.40;;;;;;5072242;28;19931;-68
2022/08/15 09:52:38;;;;;;;;;;;23.60;61.30;;;;;;5075406;28;19934;-67
2022/08/15 09:55:15;;;;;;;;;;;23.70;61.10;;;;;;5074287;28;20135;-70
2022/08/15 09:57:48;;;;;;;;;;;23.70;60.60;;;;;;5077606;28;19932;-69
2022/08/15 10:00:20;;;;;;;;;;;23.80;60.40;;;;;;5081802;28;20441;-68
2022/08/15 10:02:48;;;;;;;;;;;23.80;60.40;;;;;;5078905;28;19935;-68
2022/08/15 10:05:21;;;;;;;;;;;23.90;60.20;;;;;;5072655;28;20346;-68
2022/08/15 10:07:50;;;;;;;;;;;23.90;59.80;;;;;;5075126;28;20541;-69
2022/08/15 10:10:19;;;;;;;;;;;24.00;59.70;;;;;;5077117;28;19940;-69
2022/08/15 10:13:07;;;;;;;;;;;24.00;59.50;;;;;;5070412;28;20548;-69
2022/08/15 10:15:41;;;;;;;;;;;24.00;59.20;;;;;;5042315;28;19928;-69
2022/08/15 10:18:08;;;;;;;;;;;24.10;59.10;;;;;;5076336;28;19928;-68
2022/08/15 10:20:49;;;;;;;;;;;24.10;58.90;;;;;;5075213;28;19928;-69
2022/08/15 10:23:16;;;;;;;;;;;24.20;58.80;;;;;;5076049;28;19932;-69
2022/08/15 10:25:45;;;;;;;;;;;24.20;58.70;;;;;;5073212;28;19935;-69
2022/08/15 10:28:21;;;;;;;;;;;24.20;58.50;;;;;;5076702;28;20009;-68
2022/08/15 10:31:13;;;;;;;;;;;24.30;58.40;;;;;;5075438;28;19992;-70
2022/08/15 10:33:44;;;;;;;;;;;24.30;58.20;;;;;;5071333;28;19932;-67
2022/08/15 10:36:18;;;;;;;;;;;24.40;57.90;;;;;;5077738;28;20590;-68
2022/08/15 10:38:46;;;;;;;;;;;24.40;57.70;;;;;;5079591;28;20687;-69
2022/08/15 10:41:15;;;;;;;;;;;24.50;57.70;;;;;;5081062;28;20358;-69
2022/08/15 10:43:49;;;;;;;;;;;24.60;57.40;;;;;;5071220;28;19928;-71
2022/08/15 10:46:18;;;;;;;;;;;24.70;57.30;;;;;;5073136;28;19928;-69
2022/08/15 10:48:52;;;;;;;;;;;24.70;57.00;;;;;;5068668;28;19932;-68
2022/08/15 10:51:25;;;;;;;;;;;24.80;56.80;;;;;;5068250;28;19939;-69
2022/08/15 10:53:58;;;;;;;;;;;24.90;56.50;;;;;;5074460;28;20505;-70
2022/08/15 10:56:25;;;;;;;;;;;25.00;56.30;;;;;;5075877;28;19932;-68
2022/08/15 10:58:59;;;;;;;;;;;25.00;56.20;;;;;;5074111;28;20055;-69
2022/08/15 11:01:31;;;;;;;;;;;25.10;55.80;;;;;;5075517;28;20433;-70
2022/08/15 11:04:01;;;;;;;;;;;25.10;55.70;;;;;;5074816;28;19928;-70
2022/08/15 11:06:28;;;;;;;;;;;25.20;55.50;;;;;;5074126;28;20497;-72
2022/08/15 11:08:57;;;;;;;;;;;25.30;55.70;;;;;;5073111;28;19934;-70
2022/08/15 11:11:25;;;;;;;;;;;25.30;55.60;;;;;;5072383;28;20025;-71
2022/08/15 11:13:53;;;;;;;;;;;25.30;55.20;;;;;;5079798;28;20386;-71
2022/08/15 11:16:28;;;;;;;;;;;25.40;54.80;;;;;;5076556;28;20018;-73
2022/08/15 11:18:56;;;;;;;;;;;25.50;54.60;;;;;;5076886;28;19932;-71
2022/08/15 11:21:28;;;;;;;;;;;25.50;54.60;;;;;;5068426;28;19932;-70
2022/08/15 11:23:57;;;;;;;;;;;25.60;55.10;;;;;;5075540;28;19928;-72
2022/08/15 11:26:25;;;;;;;;;;;25.60;54.80;;;;;;5078280;28;19935;-71
2022/08/15 11:28:55;;;;;;;;;;;25.70;54.00;;;;;;5080644;28;19951;-70
2022/08/15 11:31:22;;;;;;;;;;;25.80;53.60;;;;;;5077278;28;19928;-72
2022/08/15 11:33:50;;;;;;;;;;;25.80;53.60;;;;;;5078456;28;20053;-69
2022/08/15 11:36:18;;;;;;;;;;;25.90;53.50;;;;;;5078894;28;19932;-71
2022/08/15 11:38:47;;;;;;;;;;;25.90;53.20;;;;;;5072536;28;19928;-70
2022/08/15 11:41:19;;;;;;;;;;;26.00;53.20;;;;;;5078863;28;20284;-71
2022/08/15 11:43:45;;;;;;;;;;;26.00;53.20;;;;;;5073432;28;19928;-75
2022/08/15 11:46:12;;;;;;;;;;;26.10;53.30;;;;;;5076631;28;19928;-71
2022/08/15 11:48:39;;;;;;;;;;;26.10;53.30;;;;;;5074382;28;19935;-72
2022/08/15 11:51:08;;;;;;;;;;;26.20;53.30;;;;;;5079932;28;19994;-70
2022/08/15 11:53:36;;;;;;;;;;;26.30;52.70;;;;;;5074560;28;19935;-72
2022/08/15 11:56:04;;;;;;;;;;;26.30;52.30;;;;;;5077766;28;20291;-74
2022/08/15 11:58:33;;;;;;;;;;;26.30;52.10;;;;;;5078396;28;19932;-73
2022/08/15 12:01:18;;;;;;;;;;;26.40;51.70;;;;;;5076939;28;20311;-72
2022/08/15 12:03:57;;;;;;;;;;;26.50;51.20;;;;;;5076119;28;19932;-75
2022/08/15 12:06:27;;;;;;;;;;;26.50;51.40;;;;;;5075233;28;19961;-72
2022/08/15 12:08:54;;;;;;;;;;;26.50;52.10;;;;;;5076574;28;19932;-72
2022/08/15 12:11:23;;;;;;;;;;;26.60;51.90;;;;;;5077597;28;19928;-70
2022/08/15 12:13:56;;;;;;;;;;;26.60;51.50;;;;;;5071839;28;21205;-70
2022/08/15 12:16:25;;;;;;;;;;;26.70;50.90;;;;;;5081142;28;19959;-71
2022/08/15 12:18:53;;;;;;;;;;;26.80;51.30;;;;;;5081593;28;20740;-72
2022/08/15 12:21:20;;;;;;;;;;;26.80;51.00;;;;;;5075477;28;19939;-70
2022/08/15 12:23:49;;;;;;;;;;;26.90;51.20;;;;;;5079919;28;20510;-71
2022/08/15 12:26:16;;;;;;;;;;;27.00;51.60;;;;;;5082069;28;20024;-73
2022/08/15 12:28:44;;;;;;;;;;;27.00;51.40;;;;;;5074912;28;19939;-70
2022/08/15 12:31:17;;;;;;;;;;;27.00;51.00;;;;;;5081282;28;19939;-72
2022/08/15 12:33:44;;;;;;;;;;;27.00;50.20;;;;;;5074766;28;20296;-70
2022/08/15 12:36:11;;;;;;;;;;;27.10;50.40;;;;;;5082809;28;20608;-72
2022/08/15 12:38:37;;;;;;;;;;;27.10;51.90;;;;;;5075720;28;20313;-70
2022/08/15 12:41:04;;;;;;;;;;;27.10;52.40;;;;;;5076835;28;19935;-74
2022/08/15 12:43:31;;;;;;;;;;;27.10;51.20;;;;;;5078691;28;19928;-73
2022/08/15 12:45:59;;;;;;;;;;;27.10;50.00;;;;;;5074476;27;19929;-71
2022/08/15 12:48:27;;;;;;;;;;;27.20;51.10;;;;;;5075482;28;19928;-70
2022/08/15 12:50:54;;;;;;;;;;;27.20;51.10;;;;;;5080173;28;19932;-70
2022/08/15 12:53:20;;;;;;;;;;;27.20;51.10;;;;;;5078970;28;19939;-71
2022/08/15 12:55:48;;;;;;;;;;;27.20;51.20;;;;;;5083134;28;19928;-72
2022/08/15 12:58:16;;;;;;;;;;;27.20;50.60;;;;;;5081184;28;19946;-71
2022/08/15 13:00:43;;;;;;;;;;;27.20;50.20;;;;;;5079156;28;19936;-74
2022/08/15 13:03:16;;;;;;;;;;;27.20;50.30;;;;;;5075168;28;19928;-69
2022/08/15 13:05:43;;;;;;;;;;;27.20;50.80;;;;;;5082605;28;20040;-72
2022/08/15 13:08:09;;;;;;;;;;;27.30;51.20;;;;;;5081614;28;20414;-70
2022/08/15 13:10:36;;;;;;;;;;;27.30;50.60;;;;;;5082861;28;19939;-70
2022/08/15 13:13:02;;;;;;;;;;;27.30;50.50;;;;;;5073114;28;20463;-74
2022/08/15 13:15:29;;;;;;;;;;;27.40;49.60;;;;;;5080897;28;20703;-72
2022/08/15 13:17:56;;;;;;;;;;;27.40;50.10;;;;;;5077260;28;19928;-71
2022/08/15 13:25:52;;;;;;;;;;;27.50;49.80;;;;;;5074505;28;19932;-73
2022/08/15 13:28:19;;;;;;;;;;;27.60;49.70;;;;;;5074342;28;20752;-71
2022/08/15 13:30:45;;;;;;;;;;;27.70;49.10;;;;;;5077036;28;20298;-73
2022/08/15 13:33:12;;;;;;;;;;;27.70;47.90;;;;;;5077127;28;19961;-71
2022/08/15 13:35:40;;;;;;;;;;;27.80;48.10;;;;;;5076481;28;20486;-70
2022/08/15 13:38:07;;;;;;;;;;;27.90;47.80;;;;;;5078816;28;20732;-70
2022/08/15 13:40:34;;;;;;;;;;;27.90;48.80;;;;;;5068909;28;19964;-78
2022/08/15 13:43:01;;;;;;;;;;;28.00;48.50;;;;;;5074549;28;19924;-79
2022/08/15 13:45:28;;;;;;;;;;;28.00;48.20;;;;;;5074153;28;19928;-79
2022/08/15 13:47:54;;;;;;;;;;;28.00;48.10;;;;;;5078807;28;19928;-76
2022/08/15 13:50:21;;;;;;;;;;;28.00;49.10;;;;;;5078153;28;19932;-77
2022/08/15 13:52:49;;;;;;;;;;;28.10;48.90;;;;;;5074182;28;20411;-77
2022/08/15 13:55:16;;;;;;;;;;;28.00;49.60;;;;;;5075427;28;19951;-77
2022/08/15 13:57:43;;;;;;;;;;;28.10;48.90;;;;;;5079108;28;20511;-76
2022/08/15 14:00:11;;;;;;;;;;;28.10;49.00;;;;;;5077323;28;20570;-77
2022/08/15 14:02:40;;;;;;;;;;;28.10;48.20;;;;;;5074809;28;19939;-75
2022/08/15 14:05:08;;;;;;;;;;;28.10;47.80;;;;;;5070945;28;19925;-78
2022/08/15 14:07:35;;;;;;;;;;;28.10;48.80;;;;;;5077819;28;19932;-76
2022/08/15 14:10:03;;;;;;;;;;;28.10;48.20;;;;;;5076427;28;19928;-75
2022/08/15 14:12:30;;;;;;;;;;;28.20;49.00;;;;;;5074080;28;19936;-78
2022/08/15 14:14:58;;;;;;;;;;;28.20;49.60;;;;;;5076149;28;19929;-76
2022/08/15 14:17:25;;;;;;;;;;;28.20;48.80;;;;;;5074738;28;19928;-77
2022/08/15 14:19:52;;;;;;;;;;;28.20;49.10;;;;;;5074179;28;19934;-77
2022/08/15 14:22:19;;;;;;;;;;;28.20;49.70;;;;;;5077020;28;19928;-77
2022/08/15 14:24:47;;;;;;;;;;;28.20;49.70;;;;;;5079550;28;19994;-78
2022/08/15 14:27:15;;;;;;;;;;;28.20;49.50;;;;;;5073929;28;19990;-77
2022/08/15 14:29:43;;;;;;;;;;;28.20;48.10;;;;;;5076073;28;20167;-76
2022/08/15 14:32:12;;;;;;;;;;;28.20;48.80;;;;;;5073224;28;20416;-78